createdAt,value
2022-07-29T00:01:50.731Z,4.78
2022-07-29T00:04:17.799Z,4.95
2022-07-29T00:06:44.594Z,5.70
2022-07-29T00:09:11.223Z,4.90
2022-07-29T00:11:37.691Z,7.07
2022-07-29T00:14:05.588Z,10.75
2022-07-29T00:16:32.210Z,6.90
2022-07-29T00:19:01.905Z,5.18
2022-07-29T00:21:28.846Z,6.38
2022-07-29T00:23:55.355Z,6.93
2022-07-29T00:26:22.031Z,6.43
2022-07-29T00:28:48.471Z,6.28
2022-07-29T00:31:15.008Z,6.47
2022-07-29T00:33:41.593Z,8.55
2022-07-29T00:36:08.025Z,8.70
2022-07-29T00:38:34.492Z,9.40
2022-07-29T00:41:01.033Z,8.20
2022-07-29T00:43:28.138Z,8.88
2022-07-29T00:45:57.517Z,11.02
2022-07-29T00:48:23.960Z,15.17
2022-07-29T00:50:51.011Z,9.63
2022-07-29T00:53:17.766Z,11.43
2022-07-29T00:55:44.247Z,11.07
2022-07-29T00:58:13.257Z,11.95
2022-07-29T01:00:41.683Z,11.17
2022-07-29T01:03:09.108Z,8.15
2022-07-29T01:05:49.656Z,10.30
2022-07-29T01:08:19.467Z,12.02
2022-07-29T01:10:47.699Z,7.63
2022-07-29T01:13:17.199Z,8.77
2022-07-29T01:15:52.562Z,9.45
2022-07-29T01:18:31.567Z,10.57
2022-07-29T01:21:12.947Z,8.10
2022-07-29T01:23:57.433Z,9.65
2022-07-29T01:26:42.527Z,8.13
2022-07-29T01:29:12.101Z,7.75
2022-07-29T01:32:00.686Z,8.32
2022-07-29T01:34:45.827Z,9.30
2022-07-29T01:37:27.035Z,8.82
2022-07-29T01:39:56.628Z,8.97
2022-07-29T01:42:48.138Z,8.45
2022-07-29T01:45:45.737Z,9.65
2022-07-29T01:48:23.779Z,8.43
2022-07-29T01:51:02.793Z,7.03
2022-07-29T01:53:38.562Z,9.97
2022-07-29T01:56:07.549Z,8.65
2022-07-29T01:58:37.597Z,8.02
2022-07-29T02:01:05.422Z,7.95
2022-07-29T02:03:34.328Z,7.40
2022-07-29T02:06:02.990Z,9.10
2022-07-29T02:08:32.386Z,9.98
2022-07-29T02:11:00.818Z,10.07
2022-07-29T02:13:29.103Z,7.03
2022-07-29T02:15:58.247Z,9.23
2022-07-29T02:18:28.342Z,8.73
2022-07-29T02:20:57.836Z,7.90
2022-07-29T02:23:25.902Z,9.05
2022-07-29T02:25:57.930Z,9.82
2022-07-29T02:28:28.690Z,8.52
2022-07-29T02:30:59.725Z,8.90
2022-07-29T02:33:27.395Z,8.95
2022-07-29T02:35:54.751Z,8.13
2022-07-29T02:38:41.779Z,8.85
2022-07-29T02:41:14.440Z,9.20
2022-07-29T02:43:43.013Z,8.43
2022-07-29T02:46:28.363Z,7.85
2022-07-29T02:49:02.287Z,8.60
2022-07-29T02:51:44.983Z,9.50
2022-07-29T02:54:21.138Z,9.20
2022-07-29T02:56:50.151Z,8.47
2022-07-29T02:59:23.006Z,8.52
2022-07-29T03:01:50.532Z,9.52
2022-07-29T03:04:20.587Z,9.07
2022-07-29T03:06:47.920Z,10.75
2022-07-29T03:09:14.986Z,10.17
2022-07-29T03:11:49.900Z,11.52
2022-07-29T03:14:21.546Z,10.35
2022-07-29T03:16:49.212Z,9.73
2022-07-29T03:19:16.428Z,8.93
2022-07-29T03:21:42.908Z,9.10
2022-07-29T03:24:10.770Z,8.63
2022-07-29T03:26:37.755Z,13.23
2022-07-29T03:29:04.294Z,9.75
2022-07-29T03:31:30.865Z,8.10
2022-07-29T03:33:58.405Z,8.40
2022-07-29T03:36:25.713Z,9.75
2022-07-29T03:38:53.057Z,9.25
2022-07-29T03:41:22.293Z,6.32
2022-07-29T03:43:52.797Z,8.15
2022-07-29T03:46:23.706Z,7.33
2022-07-29T03:48:53.806Z,7.88
2022-07-29T03:51:33.454Z,8.27
2022-07-29T03:54:06.380Z,8.93
2022-07-29T03:56:40.644Z,10.57
2022-07-29T03:59:07.999Z,9.07
2022-07-29T04:01:35.718Z,8.32
2022-07-29T04:04:03.571Z,10.02
2022-07-29T04:06:30.120Z,7.88
2022-07-29T04:08:56.549Z,7.72
2022-07-29T04:11:23.067Z,6.87
2022-07-29T04:13:49.487Z,8.10
2022-07-29T04:16:16.044Z,8.40
2022-07-29T04:18:42.531Z,10.60
2022-07-29T04:21:08.959Z,10.73
2022-07-29T04:23:35.550Z,10.00
2022-07-29T04:26:14.326Z,9.68
2022-07-29T04:28:41.397Z,9.40
2022-07-29T04:31:07.878Z,8.88
2022-07-29T04:33:34.356Z,10.13
2022-07-29T04:36:00.778Z,9.50
2022-07-29T04:38:27.585Z,9.10
2022-07-29T04:40:57.222Z,10.52
2022-07-29T04:43:23.777Z,10.82
2022-07-29T04:45:51.597Z,12.25
2022-07-29T04:48:18.110Z,10.83
2022-07-29T04:50:45.271Z,9.93
2022-07-29T04:53:11.966Z,10.93
2022-07-29T04:55:38.914Z,8.05
2022-07-29T04:58:05.689Z,8.75
2022-07-29T05:00:33.435Z,9.03
2022-07-29T05:03:00.321Z,10.00
2022-07-29T05:05:26.845Z,9.55
2022-07-29T05:07:53.316Z,10.05
2022-07-29T05:10:19.810Z,10.38
2022-07-29T05:12:46.322Z,9.77
2022-07-29T05:15:12.794Z,10.18
2022-07-29T05:17:39.241Z,8.93
2022-07-29T05:20:07.409Z,9.88
2022-07-29T05:22:34.029Z,9.95
2022-07-29T05:25:03.284Z,8.20
2022-07-29T05:27:33.470Z,7.78
2022-07-29T05:29:59.973Z,9.00
2022-07-29T05:32:26.509Z,9.05
2022-07-29T05:34:53.053Z,8.48
2022-07-29T05:37:20.600Z,6.03
2022-07-29T05:39:50.346Z,9.70
2022-07-29T05:42:17.541Z,7.13
2022-07-29T05:44:44.004Z,6.75
2022-07-29T05:47:10.558Z,5.45
2022-07-29T05:49:37.042Z,8.70
2022-07-29T05:52:04.303Z,5.88
2022-07-29T05:54:30.866Z,7.00
2022-07-29T05:56:57.474Z,6.00
2022-07-29T05:59:28.288Z,6.20
2022-07-29T06:01:58.145Z,8.13
2022-07-29T06:04:24.959Z,7.45
2022-07-29T06:06:51.523Z,5.45
2022-07-29T06:09:18.116Z,8.18
2022-07-29T06:11:44.592Z,5.10
2022-07-29T06:14:11.178Z,7.77
2022-07-29T06:16:38.061Z,5.68
2022-07-29T06:19:05.325Z,5.97
2022-07-29T06:21:32.113Z,5.65
2022-07-29T06:23:58.706Z,5.15
2022-07-29T06:26:30.907Z,6.30
2022-07-29T06:28:58.091Z,9.02
2022-07-29T06:31:24.693Z,10.32
2022-07-29T06:33:51.257Z,6.47
2022-07-29T06:36:20.616Z,5.65
2022-07-29T06:38:51.294Z,5.60
2022-07-29T06:41:19.102Z,10.00
2022-07-29T06:43:52.342Z,6.78
2022-07-29T06:46:23.029Z,5.05
2022-07-29T06:48:51.184Z,8.48
2022-07-29T06:51:23.411Z,7.67
2022-07-29T06:53:59.671Z,5.72
2022-07-29T06:56:31.666Z,6.20
2022-07-29T06:58:58.503Z,6.47
2022-07-29T07:01:25.058Z,5.38
2022-07-29T07:03:51.683Z,5.10
2022-07-29T07:06:18.292Z,10.05
2022-07-29T07:08:44.854Z,5.78
2022-07-29T07:11:11.522Z,4.93
2022-07-29T07:13:38.200Z,5.47
2022-07-29T07:16:05.448Z,4.97
2022-07-29T07:18:32.265Z,8.82
2022-07-29T07:20:59.254Z,7.35
2022-07-29T07:23:25.895Z,8.23
2022-07-29T07:25:52.490Z,6.22
2022-07-29T07:28:19.449Z,5.20
2022-07-29T07:30:52.372Z,4.30
2022-07-29T07:33:18.960Z,4.10
2022-07-29T07:35:45.617Z,5.72
2022-07-29T07:38:12.417Z,7.43
2022-07-29T07:40:39.049Z,9.90
2022-07-29T07:43:05.679Z,14.93
2022-07-29T07:45:35.399Z,8.38
2022-07-29T07:48:01.998Z,6.93
2022-07-29T07:50:28.556Z,8.20
2022-07-29T07:52:59.722Z,7.97
2022-07-29T07:55:27.007Z,4.18
2022-07-29T07:57:54.931Z,5.82
2022-07-29T08:00:23.006Z,6.00
2022-07-29T08:02:50.933Z,4.45
2022-07-29T08:05:18.224Z,9.80
2022-07-29T08:07:48.011Z,19.50
2022-07-29T08:10:37.863Z,7.00
2022-07-29T08:13:05.821Z,8.80
2022-07-29T08:15:32.415Z,10.02
2022-07-29T08:17:59.522Z,4.33
2022-07-29T08:20:26.113Z,6.03
2022-07-29T08:22:54.475Z,6.88
2022-07-29T08:25:21.555Z,6.18
2022-07-29T08:27:48.666Z,22.50
2022-07-29T08:30:16.448Z,6.73
2022-07-29T08:32:53.872Z,5.88
2022-07-29T08:35:22.728Z,5.85
2022-07-29T08:37:49.353Z,5.68
2022-07-29T08:40:15.991Z,6.13
2022-07-29T08:42:42.881Z,6.10
2022-07-29T08:45:09.892Z,5.32
2022-07-29T08:47:40.697Z,7.05
2022-07-29T08:50:10.582Z,7.53
2022-07-29T08:52:42.346Z,6.80
2022-07-29T08:55:10.748Z,7.67
2022-07-29T08:57:39.508Z,7.32
2022-07-29T09:00:19.151Z,8.63
2022-07-29T09:02:52.750Z,6.75
2022-07-29T09:05:20.159Z,6.30
2022-07-29T09:07:48.984Z,6.73
2022-07-29T09:10:15.763Z,6.13
2022-07-29T09:12:42.467Z,5.50
2022-07-29T09:15:09.216Z,6.10
2022-07-29T09:17:43.357Z,4.78
2022-07-29T09:20:13.027Z,6.60
2022-07-29T09:22:42.032Z,6.45
2022-07-29T09:25:11.685Z,4.65
2022-07-29T09:27:38.276Z,5.57
2022-07-29T09:30:11.582Z,6.35
2022-07-29T09:32:59.178Z,7.77
2022-07-29T09:35:27.411Z,8.43
2022-07-29T09:37:54.411Z,5.35
2022-07-29T09:40:26.080Z,6.68
2022-07-29T09:42:55.076Z,5.10
2022-07-29T09:45:32.631Z,6.47
2022-07-29T09:48:04.472Z,8.05
2022-07-29T09:50:42.032Z,5.97
2022-07-29T09:53:10.498Z,6.47
2022-07-29T09:55:49.259Z,4.82
2022-07-29T09:58:20.787Z,4.20
2022-07-29T10:00:48.931Z,6.05
2022-07-29T10:03:16.736Z,7.10
2022-07-29T10:05:44.431Z,7.25
2022-07-29T10:08:13.306Z,6.63
2022-07-29T10:10:42.598Z,6.43
2022-07-29T10:13:16.001Z,5.22
2022-07-29T10:15:46.019Z,5.70
2022-07-29T10:18:14.822Z,5.38
2022-07-29T10:20:41.466Z,6.63
2022-07-29T10:23:08.183Z,11.47
2022-07-29T10:25:34.763Z,6.72
2022-07-29T10:28:01.535Z,6.50
2022-07-29T10:30:28.345Z,7.78
2022-07-29T10:33:07.750Z,8.13
2022-07-29T10:35:50.463Z,5.67
2022-07-29T10:38:24.663Z,4.75
2022-07-29T10:41:19.357Z,5.20
2022-07-29T10:43:51.379Z,5.30
2022-07-29T10:46:19.486Z,5.38
2022-07-29T10:49:04.744Z,5.40
2022-07-29T10:51:59.892Z,6.63
2022-07-29T10:54:36.113Z,5.28
2022-07-29T10:57:11.717Z,4.00
2022-07-29T10:59:38.233Z,4.40
2022-07-29T11:02:41.780Z,6.73
2022-07-29T11:05:12.834Z,4.68
2022-07-29T11:08:00.549Z,4.85
2022-07-29T11:10:31.387Z,5.05
2022-07-29T11:12:59.131Z,6.95
2022-07-29T11:15:25.756Z,5.10
2022-07-29T11:17:55.338Z,3.97
2022-07-29T11:20:32.474Z,5.68
2022-07-29T11:22:59.874Z,6.18
2022-07-29T11:25:50.949Z,4.65
2022-07-29T11:28:25.035Z,5.80
2022-07-29T11:30:54.433Z,5.32
2022-07-29T11:33:37.538Z,5.53
2022-07-29T11:36:18.495Z,7.43
2022-07-29T11:39:27.071Z,4.45
2022-07-29T11:42:32.185Z,7.70
2022-07-29T11:45:42.697Z,6.22
2022-07-29T11:48:29.900Z,4.80
2022-07-29T11:50:53.406Z,5.28
2022-07-29T11:53:20.419Z,5.20
2022-07-29T11:55:55.439Z,5.47
2022-07-29T11:58:26.270Z,5.43
2022-07-29T12:00:55.180Z,5.43
2022-07-29T12:03:35.026Z,6.30
2022-07-29T12:06:02.463Z,5.00
2022-07-29T12:08:29.011Z,6.77
2022-07-29T12:10:55.629Z,7.57
2022-07-29T12:13:22.629Z,7.45
2022-07-29T12:16:00.154Z,6.95
2022-07-29T12:18:27.871Z,6.55
2022-07-29T12:21:05.813Z,5.47
2022-07-29T12:23:35.649Z,5.50
2022-07-29T12:26:07.664Z,5.05
2022-07-29T12:28:39.587Z,6.35
2022-07-29T12:31:06.373Z,4.60
2022-07-29T12:33:35.816Z,5.83
2022-07-29T12:36:10.468Z,4.80
2022-07-29T12:38:41.692Z,5.07
2022-07-29T12:41:09.443Z,6.95
2022-07-29T12:43:36.109Z,6.13
2022-07-29T12:46:25.292Z,4.27
2022-07-29T12:48:57.464Z,3.95
2022-07-29T12:51:38.047Z,4.55
2022-07-29T12:54:11.540Z,5.40
2022-07-29T12:56:44.402Z,6.03
2022-07-29T12:59:16.987Z,3.80
2022-07-29T13:01:44.070Z,3.90
2022-07-29T13:04:10.715Z,4.68
2022-07-29T13:07:01.410Z,4.07
2022-07-29T13:09:44.135Z,4.93
2022-07-29T13:12:13.002Z,5.20
2022-07-29T13:14:44.562Z,5.93
2022-07-29T13:17:18.601Z,5.00
2022-07-29T13:19:53.432Z,4.63
2022-07-29T13:22:24.786Z,5.43
2022-07-29T13:24:55.578Z,4.30
2022-07-29T13:27:25.124Z,4.00
2022-07-29T13:29:53.327Z,4.93
2022-07-29T13:32:27.865Z,6.30
2022-07-29T13:34:56.626Z,7.07
2022-07-29T13:37:23.052Z,6.13
2022-07-29T13:39:51.286Z,4.55
2022-07-29T13:42:20.599Z,4.32
2022-07-29T13:44:47.204Z,4.30
2022-07-29T13:47:13.861Z,5.88
2022-07-29T13:49:40.373Z,6.07
2022-07-29T13:52:08.417Z,4.30
2022-07-29T13:54:41.941Z,6.50
2022-07-29T13:57:09.526Z,4.75
2022-07-29T13:59:36.116Z,4.18
2022-07-29T14:02:03.562Z,5.13
2022-07-29T14:04:30.201Z,4.45
2022-07-29T14:06:59.737Z,5.05
2022-07-29T14:09:37.227Z,3.60
2022-07-29T14:12:08.696Z,8.45
2022-07-29T14:14:36.461Z,6.70
2022-07-29T14:17:04.157Z,5.93
2022-07-29T14:19:32.939Z,8.35
2022-07-29T14:21:59.963Z,8.15
2022-07-29T14:24:26.741Z,5.50
2022-07-29T14:26:53.257Z,7.67
2022-07-29T14:29:19.911Z,7.68
2022-07-29T14:31:46.621Z,6.55
2022-07-29T14:34:13.182Z,5.97
2022-07-29T14:36:39.632Z,9.02
2022-07-29T14:39:06.106Z,6.20
2022-07-29T14:41:32.782Z,8.13
2022-07-29T14:44:01.702Z,6.70
2022-07-29T14:46:28.705Z,6.32
2022-07-29T14:48:55.371Z,7.50
2022-07-29T14:51:21.938Z,11.30
2022-07-29T14:53:48.414Z,6.95
2022-07-29T14:56:36.015Z,9.43
2022-07-29T14:59:01.718Z,8.18
2022-07-29T15:01:28.381Z,9.13
2022-07-29T15:03:59.407Z,6.77
2022-07-29T15:06:27.020Z,7.53
2022-07-29T15:08:53.516Z,6.35
2022-07-29T15:11:19.941Z,7.10
2022-07-29T15:13:46.480Z,9.55
2022-07-29T15:16:13.326Z,7.83
2022-07-29T15:18:39.830Z,8.35
2022-07-29T15:21:07.861Z,8.50
2022-07-29T15:23:37.198Z,6.82
2022-07-29T15:26:04.703Z,10.00
2022-07-29T15:28:31.291Z,6.07
2022-07-29T15:30:57.925Z,6.97
2022-07-29T15:33:24.403Z,7.03
2022-07-29T15:35:50.847Z,8.00
2022-07-29T15:38:17.810Z,7.55
2022-07-29T15:40:45.286Z,9.07
2022-07-29T15:43:12.514Z,10.95
2022-07-29T15:46:03.371Z,11.30
2022-07-29T15:48:30.003Z,9.30
2022-07-29T15:50:56.454Z,7.40
2022-07-29T15:53:23.140Z,8.00
2022-07-29T15:55:49.634Z,8.38
2022-07-29T15:58:16.109Z,9.55
2022-07-29T16:00:42.638Z,9.00
2022-07-29T16:03:09.134Z,8.27
2022-07-29T16:05:37.153Z,27.23
2022-07-29T16:08:04.174Z,10.05
2022-07-29T16:10:30.656Z,8.63
2022-07-29T16:12:57.161Z,7.55
2022-07-29T16:15:23.691Z,9.95
2022-07-29T16:17:50.417Z,8.73
2022-07-29T16:20:16.967Z,9.05
2022-07-29T16:22:43.530Z,9.88
2022-07-29T16:25:10.071Z,8.70
2022-07-29T16:27:38.165Z,7.57
2022-07-29T16:30:07.065Z,9.27
2022-07-29T16:32:33.619Z,7.88
2022-07-29T16:35:02.014Z,7.45
2022-07-29T16:37:33.409Z,7.55
2022-07-29T16:39:59.920Z,7.75
2022-07-29T16:42:45.372Z,7.03
2022-07-29T16:45:13.505Z,8.27
2022-07-29T16:47:40.457Z,6.28
2022-07-29T16:50:07.536Z,8.60
2022-07-29T16:52:34.119Z,6.07
2022-07-29T16:55:00.645Z,8.13
2022-07-29T16:57:27.146Z,7.05
2022-07-29T16:59:53.585Z,6.47
2022-07-29T17:02:20.676Z,7.97
2022-07-29T17:04:47.207Z,7.85
2022-07-29T17:07:14.150Z,6.80
2022-07-29T17:09:40.945Z,6.65
2022-07-29T17:12:07.737Z,6.82
2022-07-29T17:14:34.206Z,7.47
2022-07-29T17:17:02.259Z,17.13
2022-07-29T17:19:35.594Z,8.07
2022-07-29T17:22:10.584Z,7.28
2022-07-29T17:24:41.046Z,8.40
2022-07-29T17:27:08.542Z,8.45
2022-07-29T17:29:35.205Z,7.32
2022-07-29T17:32:01.923Z,8.23
2022-07-29T17:34:28.378Z,8.18
2022-07-29T17:36:54.939Z,9.02
2022-07-29T17:39:21.700Z,6.65
2022-07-29T17:41:48.225Z,6.90
2022-07-29T17:44:14.826Z,8.30
2022-07-29T17:46:41.634Z,7.05
2022-07-29T17:49:08.258Z,6.82
2022-07-29T17:51:34.808Z,8.73
2022-07-29T17:54:01.416Z,6.75
2022-07-29T17:56:27.899Z,8.13
2022-07-29T17:58:54.558Z,7.97
2022-07-29T18:01:21.236Z,5.90
2022-07-29T18:03:47.911Z,8.25
2022-07-29T18:06:14.445Z,6.68
2022-07-29T18:08:41.085Z,9.13
2022-07-29T18:11:07.606Z,10.63
2022-07-29T18:13:34.064Z,6.50
2022-07-29T18:16:01.047Z,7.88
2022-07-29T18:18:27.847Z,7.03
2022-07-29T18:20:54.481Z,9.20
2022-07-29T18:23:21.236Z,7.60
2022-07-29T18:25:47.915Z,7.85
2022-07-29T18:28:14.438Z,11.07
2022-07-29T18:30:41.898Z,8.45
2022-07-29T18:33:21.703Z,8.20
2022-07-29T18:35:51.314Z,7.35
2022-07-29T18:38:18.209Z,7.90
2022-07-29T18:40:45.662Z,8.50
2022-07-29T18:43:13.127Z,7.97
2022-07-29T18:45:40.306Z,10.27
2022-07-29T18:48:12.754Z,8.60
2022-07-29T18:50:40.205Z,11.55
2022-07-29T18:53:06.937Z,10.93
2022-07-29T18:55:33.396Z,9.85
2022-07-29T18:57:59.869Z,7.97
2022-07-29T19:00:26.756Z,10.68
2022-07-29T19:02:53.875Z,10.70
2022-07-29T19:05:21.278Z,8.63
2022-07-29T19:07:47.784Z,9.38
2022-07-29T19:10:14.361Z,10.00
2022-07-29T19:12:40.872Z,8.45
2022-07-29T19:15:08.050Z,11.98
2022-07-29T19:17:34.698Z,8.88
2022-07-29T19:20:01.257Z,7.55
2022-07-29T19:22:27.809Z,9.77
2022-07-29T19:24:54.267Z,10.18
2022-07-29T19:27:20.770Z,10.05
2022-07-29T19:29:50.245Z,10.98
2022-07-29T19:32:24.526Z,10.05
2022-07-29T19:35:10.246Z,10.83
2022-07-29T19:37:37.275Z,10.77
2022-07-29T19:40:04.890Z,12.70
2022-07-29T19:42:31.354Z,14.32
2022-07-29T19:44:57.857Z,11.05
2022-07-29T19:47:24.449Z,13.33
2022-07-29T19:49:50.932Z,12.15
2022-07-29T19:52:17.467Z,10.48
2022-07-29T19:54:43.909Z,10.35
2022-07-29T19:57:10.458Z,10.85
2022-07-29T19:59:37.230Z,14.10
2022-07-29T20:02:03.852Z,10.63
2022-07-29T20:04:30.546Z,10.75
2022-07-29T20:07:01.269Z,14.10
2022-07-29T20:09:28.649Z,14.27
2022-07-29T20:11:55.087Z,10.27
2022-07-29T20:14:21.852Z,13.27
2022-07-29T20:16:48.795Z,15.52
2022-07-29T20:19:15.916Z,9.85
2022-07-29T20:21:42.509Z,12.30
2022-07-29T20:24:10.298Z,12.30
2022-07-29T20:26:36.864Z,10.93
2022-07-29T20:29:05.251Z,10.27
2022-07-29T20:31:32.405Z,11.77
2022-07-29T20:34:00.116Z,13.10
2022-07-29T20:36:27.439Z,12.83
2022-07-29T20:38:55.041Z,10.82
2022-07-29T20:41:21.659Z,12.90
2022-07-29T20:43:49.777Z,12.32
2022-07-29T20:46:19.678Z,12.80
2022-07-29T20:48:47.106Z,10.50
2022-07-29T20:51:14.574Z,13.73
2022-07-29T20:53:41.622Z,11.93
2022-07-29T20:56:12.441Z,12.48
2022-07-29T20:58:40.311Z,12.10
2022-07-29T21:01:07.678Z,10.27
2022-07-29T21:03:34.242Z,11.95
2022-07-29T21:06:00.930Z,13.32
2022-07-29T21:08:28.000Z,12.38
2022-07-29T21:10:54.594Z,12.10
2022-07-29T21:13:22.942Z,12.53
2022-07-29T21:15:51.523Z,12.48
2022-07-29T21:18:32.829Z,12.65
2022-07-29T21:21:04.715Z,11.63
2022-07-29T21:23:31.279Z,23.38
2022-07-29T21:25:58.460Z,20.60
2022-07-29T21:28:27.617Z,13.23
2022-07-29T21:30:58.778Z,11.68
2022-07-29T21:33:28.623Z,13.90
2022-07-29T21:38:42.548Z,13.03
2022-07-29T21:41:11.297Z,12.20
2022-07-29T21:43:38.247Z,12.52
2022-07-29T21:46:08.900Z,12.38
2022-07-29T21:48:35.458Z,11.90
2022-07-29T21:51:02.267Z,10.07
2022-07-29T21:53:28.781Z,14.85
2022-07-29T21:55:57.245Z,9.80
2022-07-29T21:58:24.533Z,12.25
2022-07-29T22:00:51.153Z,15.45
2022-07-29T22:03:17.937Z,10.97
2022-07-29T22:05:44.637Z,10.50
2022-07-29T22:08:11.198Z,11.82
2022-07-29T22:10:37.735Z,10.52
2022-07-29T22:13:04.388Z,10.55
2022-07-29T22:15:31.392Z,12.30
2022-07-29T22:17:58.586Z,12.30
2022-07-29T22:20:25.449Z,10.00
2022-07-29T22:22:52.798Z,12.75
2022-07-29T22:25:19.623Z,10.25
2022-07-29T22:27:46.218Z,13.63
2022-07-29T22:30:13.282Z,12.27
2022-07-29T22:32:40.256Z,12.27
2022-07-29T22:35:07.534Z,11.00
2022-07-29T22:37:34.392Z,11.02
2022-07-29T22:40:00.988Z,10.60
2022-07-29T22:42:27.506Z,12.75
2022-07-29T22:44:53.999Z,10.48
2022-07-29T22:47:39.772Z,10.88
2022-07-29T22:50:10.034Z,11.35
2022-07-29T22:52:36.852Z,10.30
2022-07-29T22:55:04.972Z,11.77
2022-07-29T22:57:31.688Z,11.07
2022-07-29T22:59:58.236Z,9.40
2022-07-29T23:02:24.671Z,10.73
2022-07-29T23:04:51.126Z,10.00
2022-07-29T23:07:17.692Z,9.88
2022-07-29T23:09:44.221Z,9.77
2022-07-29T23:12:10.710Z,10.65
2022-07-29T23:14:37.166Z,10.07
2022-07-29T23:17:04.511Z,9.83
2022-07-29T23:19:31.460Z,10.23
2022-07-29T23:21:57.906Z,10.55
2022-07-29T23:24:24.408Z,12.65
2022-07-29T23:26:56.690Z,9.82
2022-07-29T23:29:23.203Z,10.20
2022-07-29T23:31:49.753Z,12.27
2022-07-29T23:34:16.302Z,10.55
2022-07-29T23:36:42.801Z,10.52
2022-07-29T23:39:13.324Z,12.00
2022-07-29T23:41:40.668Z,11.57
2022-07-29T23:44:07.393Z,10.63
2022-07-29T23:46:34.031Z,12.15
2022-07-29T23:49:00.761Z,10.75
2022-07-29T23:51:29.059Z,11.25
2022-07-29T23:53:55.857Z,11.27
2022-07-29T23:56:22.712Z,9.95
2022-07-29T23:58:49.207Z,10.27
